createdAt,value
2022-09-05T00:01:53.109Z,17.50
2022-09-05T00:04:29.744Z,17.60
2022-09-05T00:07:08.249Z,17.60
2022-09-05T00:09:59.684Z,17.40
2022-09-05T00:12:30.948Z,17.30
2022-09-05T00:15:19.344Z,17.30
2022-09-05T00:22:52.675Z,17.30
2022-09-05T00:24:20.307Z,17.30
2022-09-05T00:24:34.657Z,17.20
2022-09-05T00:27:00.607Z,17.10
2022-09-05T00:31:07.680Z,17.10
2022-09-05T00:33:02.142Z,17.10
2022-09-05T00:35:57.141Z,17.20
2022-09-05T00:38:36.997Z,17.30
2022-09-05T00:41:12.196Z,17.40
2022-09-05T00:43:43.584Z,17.40
2022-09-05T00:46:17.014Z,17.40
2022-09-05T00:48:50.159Z,17.20
2022-09-05T00:51:34.346Z,17.20
2022-09-05T00:54:40.450Z,17.20
2022-09-05T00:57:30.648Z,17.20
2022-09-05T01:00:18.537Z,17.20
2022-09-05T01:03:11.646Z,17.10
2022-09-05T01:06:09.468Z,17.00
2022-09-05T01:09:13.536Z,16.90
2022-09-05T01:11:53.566Z,16.80
2022-09-05T01:14:32.612Z,16.80
2022-09-05T01:17:18.769Z,16.80
2022-09-05T01:20:19.693Z,17.00
2022-09-05T01:23:17.971Z,17.10
2022-09-05T01:26:01.040Z,17.30
2022-09-05T01:29:16.180Z,17.40
2022-09-05T01:31:32.530Z,17.40
2022-09-05T01:34:09.927Z,17.40
2022-09-05T01:37:01.290Z,17.40
2022-09-05T01:40:15.158Z,17.50
2022-09-05T01:42:38.370Z,17.50
2022-09-05T01:45:12.622Z,17.50
2022-09-05T01:47:53.144Z,17.30
2022-09-05T01:50:37.187Z,17.30
2022-09-05T01:53:25.591Z,17.30
2022-09-05T01:56:26.385Z,17.30
2022-09-05T01:59:06.796Z,17.40
2022-09-05T02:01:56.594Z,17.40
2022-09-05T02:04:48.201Z,17.30
2022-09-05T02:07:31.075Z,17.40
2022-09-05T02:10:26.484Z,17.40
2022-09-05T02:13:03.488Z,17.30
2022-09-05T02:15:59.372Z,17.10
2022-09-05T02:18:43.425Z,17.20
2022-09-05T02:21:19.612Z,17.30
2022-09-05T02:23:53.841Z,17.30
2022-09-05T02:26:27.197Z,17.30
2022-09-05T02:29:01.096Z,17.30
2022-09-05T02:31:36.120Z,17.40
2022-09-05T02:34:14.125Z,17.30
2022-09-05T02:36:47.058Z,17.40
2022-09-05T02:45:06.292Z,17.40
2022-09-05T02:45:08.384Z,17.50
2022-09-05T02:45:38.558Z,17.30
2022-09-05T02:48:17.033Z,17.20
2022-09-05T02:57:27.403Z,17.20
2022-09-05T02:57:42.127Z,16.90
2022-09-05T02:58:06.625Z,17.10
2022-09-05T03:00:11.209Z,16.60
2022-09-05T03:03:02.255Z,16.60
2022-09-05T03:05:36.000Z,16.50
2022-09-05T03:08:18.796Z,16.50
2022-09-05T03:11:27.031Z,16.40
2022-09-05T03:14:34.216Z,16.50
2022-09-05T03:17:44.970Z,16.50
2022-09-05T03:20:40.948Z,16.50
2022-09-05T03:23:49.908Z,16.50
2022-09-05T03:27:03.591Z,16.50
2022-09-05T03:30:00.656Z,16.40
2022-09-05T03:33:01.125Z,16.50
2022-09-05T03:36:19.063Z,16.40
2022-09-05T03:39:21.099Z,16.40
2022-09-05T03:42:18.021Z,16.40
2022-09-05T03:45:01.356Z,16.40
2022-09-05T03:48:28.788Z,16.30
2022-09-05T03:57:04.746Z,16.30
2022-09-05T03:57:15.450Z,16.30
2022-09-05T03:57:42.790Z,16.20
2022-09-05T04:00:21.930Z,16.00
2022-09-05T04:08:09.487Z,16.00
2022-09-05T04:08:28.210Z,15.90
2022-09-05T04:09:07.283Z,15.90
2022-09-05T04:11:41.434Z,15.90
2022-09-05T04:14:15.420Z,16.00
2022-09-05T04:16:52.106Z,16.00
2022-09-05T04:19:28.332Z,16.20
2022-09-05T04:22:08.659Z,16.20
2022-09-05T04:24:46.958Z,16.20
2022-09-05T04:27:30.520Z,16.30
2022-09-05T04:30:06.545Z,16.20
2022-09-05T04:32:58.566Z,16.20
2022-09-05T04:35:39.242Z,16.10
2022-09-05T04:38:15.914Z,16.10
2022-09-05T04:40:49.525Z,16.10
2022-09-05T04:43:32.163Z,16.00
2022-09-05T04:46:10.747Z,16.00
2022-09-05T04:48:46.891Z,16.00
2022-09-05T04:51:45.233Z,16.00
2022-09-05T04:54:35.704Z,16.10
2022-09-05T04:57:18.000Z,16.10
2022-09-05T05:06:04.779Z,16.10
2022-09-05T05:06:10.664Z,16.20
2022-09-05T05:06:13.108Z,16.20
2022-09-05T05:08:39.180Z,16.10
2022-09-05T05:17:54.302Z,16.00
2022-09-05T05:17:58.282Z,15.90
2022-09-05T05:18:15.470Z,15.90
2022-09-05T05:20:42.106Z,16.00
2022-09-05T05:22:55.420Z,16.00
2022-09-05T05:25:23.730Z,16.10
2022-09-05T05:28:09.847Z,16.10
2022-09-05T05:30:51.996Z,16.10
2022-09-05T05:33:34.130Z,16.10
2022-09-05T05:36:05.699Z,16.00
2022-09-05T05:38:41.503Z,16.20
2022-09-05T05:41:19.008Z,16.20
2022-09-05T05:43:48.424Z,16.30
2022-09-05T05:46:27.962Z,16.20
2022-09-05T05:49:15.350Z,16.20
2022-09-05T05:52:02.621Z,16.30
2022-09-05T05:54:38.773Z,16.20
2022-09-05T05:57:43.252Z,16.10
2022-09-05T06:00:24.578Z,16.20
2022-09-05T06:03:35.370Z,16.20
2022-09-05T06:06:16.223Z,16.30
2022-09-05T06:14:48.078Z,16.30
2022-09-05T06:14:57.130Z,16.30
2022-09-05T06:16:06.479Z,16.40
2022-09-05T06:19:05.114Z,16.30
2022-09-05T06:22:10.456Z,16.40
2022-09-05T06:25:39.193Z,16.40
2022-09-05T06:28:20.085Z,16.30
2022-09-05T06:31:29.821Z,16.40
2022-09-05T06:34:05.080Z,16.40
2022-09-05T06:36:49.049Z,16.40
2022-09-05T06:39:27.533Z,16.40
2022-09-05T06:42:42.543Z,16.50
2022-09-05T06:45:27.316Z,16.60
2022-09-05T06:48:04.267Z,16.60
2022-09-05T06:51:01.983Z,16.70
2022-09-05T06:54:13.184Z,16.80
2022-09-05T06:57:00.628Z,16.90
2022-09-05T06:59:57.832Z,17.00
2022-09-05T07:03:00.184Z,17.10
2022-09-05T07:05:39.680Z,17.10
2022-09-05T07:08:36.076Z,17.20
2022-09-05T07:11:15.737Z,17.30
2022-09-05T07:13:55.882Z,17.50
2022-09-05T07:16:39.339Z,17.60
2022-09-05T07:19:27.441Z,17.70
2022-09-05T07:22:47.560Z,17.80
2022-09-05T07:25:19.909Z,17.90
2022-09-05T07:28:26.399Z,18.00
2022-09-05T07:30:51.653Z,18.10
2022-09-05T07:33:22.531Z,18.20
2022-09-05T07:35:52.704Z,18.20
2022-09-05T07:38:49.058Z,18.30
2022-09-05T07:41:23.581Z,18.40
2022-09-05T07:43:56.185Z,18.50
2022-09-05T07:46:28.839Z,18.50
2022-09-05T07:49:02.794Z,18.50
2022-09-05T07:56:49.104Z,18.60
2022-09-05T07:57:08.674Z,18.70
2022-09-05T07:57:30.306Z,18.80
2022-09-05T08:00:07.173Z,18.90
2022-09-05T08:02:45.369Z,19.00
2022-09-05T08:05:16.215Z,19.00
2022-09-05T08:07:55.329Z,19.10
2022-09-05T08:10:31.194Z,19.10
2022-09-05T08:13:24.764Z,19.20
2022-09-05T08:16:10.797Z,19.20
2022-09-05T08:18:50.032Z,19.40
2022-09-05T08:21:27.710Z,19.50
2022-09-05T08:24:05.449Z,19.60
2022-09-05T08:26:47.583Z,19.60
2022-09-05T08:29:28.351Z,19.70
2022-09-05T08:32:02.870Z,19.70
2022-09-05T08:34:44.141Z,19.80
2022-09-05T08:37:21.252Z,19.80
2022-09-05T08:40:10.047Z,19.90
2022-09-05T08:45:39.556Z,19.90
2022-09-05T08:46:43.269Z,20.00
2022-09-05T08:48:41.650Z,20.10
2022-09-05T08:51:23.081Z,20.10
2022-09-05T08:54:23.704Z,20.10
2022-09-05T08:56:58.396Z,20.20
2022-09-05T08:59:33.877Z,20.20
2022-09-05T09:02:46.749Z,20.20
2022-09-05T09:05:58.086Z,20.30
2022-09-05T09:08:22.656Z,20.30
2022-09-05T09:10:57.437Z,20.40
2022-09-05T09:13:37.506Z,20.40
2022-09-05T09:16:11.026Z,20.40
2022-09-05T09:19:02.652Z,20.50
2022-09-05T09:21:38.744Z,20.60
2022-09-05T09:24:22.725Z,20.60
2022-09-05T09:26:55.756Z,20.70
2022-09-05T09:29:25.195Z,20.80
2022-09-05T09:32:06.344Z,20.90
2022-09-05T09:34:58.216Z,21.00
2022-09-05T09:38:00.228Z,21.00
2022-09-05T09:41:01.128Z,21.10
2022-09-05T09:43:53.182Z,21.20
2022-09-05T09:46:34.141Z,21.20
2022-09-05T09:49:30.401Z,21.40
2022-09-05T09:52:28.517Z,21.40
2022-09-05T09:55:34.154Z,21.40
2022-09-05T09:58:39.657Z,21.50
2022-09-05T10:01:36.754Z,21.60
2022-09-05T10:10:34.784Z,21.60
2022-09-05T10:10:45.543Z,21.80
2022-09-05T10:14:35.412Z,22.00
2022-09-05T10:17:27.829Z,22.10
2022-09-05T10:20:29.450Z,22.20
2022-09-05T10:23:44.601Z,22.30
2022-09-05T10:27:00.740Z,22.40
2022-09-05T10:29:46.269Z,22.50
2022-09-05T10:35:10.991Z,22.60
2022-09-05T10:35:24.437Z,22.70
2022-09-05T10:38:06.407Z,22.80
2022-09-05T10:41:21.600Z,22.90
2022-09-05T10:43:31.256Z,23.00
2022-09-05T10:46:08.758Z,23.10
2022-09-05T10:48:44.379Z,23.20
2022-09-05T10:51:27.998Z,23.30
2022-09-05T10:54:09.050Z,23.30
2022-09-05T10:56:43.685Z,23.40
2022-09-05T11:02:15.761Z,23.40
2022-09-05T11:02:29.474Z,23.50
2022-09-05T11:05:09.413Z,23.60
2022-09-05T11:07:43.303Z,23.60
2022-09-05T11:10:17.342Z,23.70
2022-09-05T11:13:14.361Z,23.80
2022-09-05T11:16:04.767Z,23.90
2022-09-05T11:19:06.638Z,23.90
2022-09-05T11:22:17.035Z,24.10
2022-09-05T11:24:51.524Z,24.20
2022-09-05T11:27:28.566Z,24.40
2022-09-05T11:30:03.481Z,24.40
2022-09-05T11:39:57.875Z,24.60
2022-09-05T11:39:58.167Z,24.50
2022-09-05T11:40:08.920Z,24.80
2022-09-05T11:42:30.673Z,24.80
2022-09-05T11:45:24.046Z,24.90
2022-09-05T11:48:33.944Z,25.00
2022-09-05T11:51:33.957Z,24.90
2022-09-05T11:54:57.800Z,24.90
2022-09-05T11:57:42.920Z,24.90
2022-09-05T12:00:31.092Z,24.90
2022-09-05T12:07:07.357Z,25.00
2022-09-05T12:10:43.418Z,25.10
2022-09-05T12:13:26.459Z,25.10
2022-09-05T12:16:08.301Z,25.30
2022-09-05T12:18:45.907Z,25.30
2022-09-05T12:21:27.381Z,25.30
2022-09-05T12:25:16.427Z,25.40
2022-09-05T12:27:43.066Z,25.50
2022-09-05T12:29:55.539Z,25.50
2022-09-05T12:34:23.529Z,25.70
2022-09-05T12:36:12.758Z,25.80
2022-09-05T12:40:54.116Z,25.90
2022-09-05T12:41:43.087Z,26.10
2022-09-05T12:41:44.236Z,25.00
2022-09-05T12:44:45.280Z,26.10
2022-09-05T12:47:20.182Z,26.10
2022-09-05T12:50:03.315Z,26.10
2022-09-05T12:52:46.623Z,26.10
2022-09-05T12:55:26.112Z,26.10
2022-09-05T13:01:34.967Z,26.10
2022-09-05T13:03:12.213Z,26.20
2022-09-05T13:04:17.649Z,26.20
2022-09-05T13:06:46.431Z,26.20
2022-09-05T13:09:22.444Z,26.20
2022-09-05T13:14:59.902Z,26.20
2022-09-05T13:15:12.336Z,26.20
2022-09-05T13:17:51.964Z,26.30
2022-09-05T13:20:33.277Z,26.30
2022-09-05T13:23:12.794Z,26.40
2022-09-05T13:25:43.319Z,26.40
2022-09-05T13:28:14.258Z,26.40
2022-09-05T13:32:26.565Z,26.40
2022-09-05T13:38:03.038Z,26.50
2022-09-05T13:38:17.618Z,26.50
2022-09-05T13:39:28.272Z,26.50
2022-09-05T13:41:59.495Z,26.50
2022-09-05T13:44:30.085Z,26.50
2022-09-05T13:47:29.248Z,26.40
2022-09-05T13:50:06.553Z,26.40
2022-09-05T13:52:38.207Z,26.40
2022-09-05T13:55:20.167Z,26.30
2022-09-05T13:57:52.255Z,26.30
2022-09-05T14:01:11.766Z,26.30
2022-09-05T14:07:45.858Z,26.40
2022-09-05T14:10:40.698Z,26.40
2022-09-05T14:13:15.429Z,26.50
2022-09-05T14:15:53.457Z,26.50
2022-09-05T14:18:24.383Z,26.60
2022-09-05T14:21:14.131Z,26.60
2022-09-05T14:23:55.917Z,26.70
2022-09-05T14:26:34.480Z,26.70
2022-09-05T14:29:14.171Z,26.80
2022-09-05T14:37:36.765Z,26.80
2022-09-05T14:37:38.732Z,26.90
2022-09-05T14:38:09.302Z,27.00
2022-09-05T14:41:24.030Z,27.10
2022-09-05T14:44:23.411Z,27.30
2022-09-05T14:47:36.405Z,27.50
2022-09-05T14:50:21.224Z,27.40
2022-09-05T14:56:24.465Z,27.10
2022-09-05T15:02:43.485Z,27.10
2022-09-05T15:02:57.897Z,27.20
2022-09-05T15:04:44.828Z,27.50
2022-09-05T15:07:19.544Z,28.00
2022-09-05T15:12:14.553Z,28.30
2022-09-05T15:12:51.188Z,28.60
2022-09-05T15:15:25.727Z,28.80
2022-09-05T15:17:59.388Z,28.50
2022-09-05T15:20:35.780Z,28.10
2022-09-05T15:23:16.280Z,27.70
2022-09-05T15:25:48.391Z,27.40
2022-09-05T15:28:21.755Z,27.10
2022-09-05T15:30:58.929Z,27.00
2022-09-05T15:33:31.148Z,26.90
2022-09-05T15:36:00.806Z,26.80
2022-09-05T15:38:55.006Z,26.70
2022-09-05T15:41:25.221Z,26.60
2022-09-05T15:44:00.957Z,26.50
2022-09-05T15:46:47.000Z,26.50
2022-09-05T15:49:32.341Z,26.50
2022-09-05T15:52:03.846Z,26.50
2022-09-05T15:54:38.394Z,26.50
2022-09-05T15:57:18.129Z,26.50
2022-09-05T15:59:49.453Z,26.40
2022-09-05T16:02:21.880Z,26.30
2022-09-05T16:10:29.905Z,26.30
2022-09-05T16:10:38.256Z,26.20
2022-09-05T16:11:35.441Z,26.10
2022-09-05T16:13:53.102Z,26.10
2022-09-05T16:23:09.335Z,26.00
2022-09-05T16:23:29.136Z,26.00
2022-09-05T16:23:30.905Z,26.00
2022-09-05T16:25:04.793Z,25.90
2022-09-05T16:27:46.990Z,25.90
2022-09-05T16:30:22.633Z,25.80
2022-09-05T16:32:55.029Z,25.80
2022-09-05T16:35:24.877Z,25.70
2022-09-05T16:38:02.757Z,25.60
2022-09-05T16:40:34.305Z,25.50
2022-09-05T16:43:08.192Z,25.50
2022-09-05T16:45:45.896Z,25.40
2022-09-05T16:48:40.958Z,25.30
2022-09-05T16:51:35.330Z,25.20
2022-09-05T16:54:11.428Z,25.20
2022-09-05T16:56:42.591Z,25.10
2022-09-05T16:59:15.808Z,25.10
2022-09-05T17:02:06.474Z,25.00
2022-09-05T17:05:03.697Z,25.00
2022-09-05T17:07:48.562Z,25.00
2022-09-05T17:10:20.558Z,24.90
2022-09-05T17:12:52.796Z,24.80
2022-09-05T17:15:26.199Z,24.80
2022-09-05T17:18:21.652Z,24.70
2022-09-05T17:20:50.898Z,24.60
2022-09-05T17:27:57.006Z,24.50
2022-09-05T17:29:35.088Z,24.50
2022-09-05T17:29:37.960Z,24.40
2022-09-05T17:32:01.678Z,24.40
2022-09-05T17:34:49.640Z,24.30
2022-09-05T17:37:38.410Z,24.20
2022-09-05T17:40:45.188Z,24.20
2022-09-05T17:43:28.314Z,24.10
2022-09-05T17:46:10.348Z,24.00
2022-09-05T17:49:18.498Z,24.00
2022-09-05T17:52:17.489Z,23.90
2022-09-05T17:54:49.538Z,23.80
2022-09-05T17:57:42.220Z,23.70
2022-09-05T18:01:05.319Z,23.70
2022-09-05T18:04:17.677Z,23.60
2022-09-05T18:10:14.779Z,23.50
2022-09-05T18:13:14.101Z,23.40
2022-09-05T18:16:12.841Z,23.40
2022-09-05T18:19:32.371Z,23.30
2022-09-05T18:21:49.774Z,23.20
2022-09-05T18:27:30.949Z,23.20
2022-09-05T18:33:55.007Z,23.20
2022-09-05T18:36:35.669Z,22.90
2022-09-05T18:39:40.356Z,22.90
2022-09-05T18:42:34.408Z,22.90
2022-09-05T18:45:15.483Z,22.90
2022-09-05T18:47:53.295Z,22.90
2022-09-05T18:50:32.526Z,22.80
2022-09-05T18:53:09.671Z,22.80
2022-09-05T18:56:11.126Z,22.70
2022-09-05T18:58:35.489Z,22.70
2022-09-05T19:01:22.139Z,22.70
2022-09-05T19:03:52.441Z,22.70
2022-09-05T19:06:36.887Z,22.60
2022-09-05T19:09:09.758Z,22.60
2022-09-05T19:11:53.378Z,22.60
2022-09-05T19:14:45.793Z,22.60
2022-09-05T19:17:19.797Z,22.60
2022-09-05T19:20:32.756Z,22.60
2022-09-05T19:23:11.301Z,22.50
2022-09-05T19:25:43.454Z,22.40
2022-09-05T19:36:45.431Z,22.40
2022-09-05T19:37:02.955Z,22.30
2022-09-05T19:37:22.229Z,22.30
2022-09-05T19:46:15.445Z,22.20
2022-09-05T19:47:37.381Z,22.20
2022-09-05T19:47:41.507Z,22.20
2022-09-05T19:48:26.047Z,22.10
2022-09-05T19:50:56.348Z,22.00
2022-09-05T19:53:25.727Z,22.00
2022-09-05T19:55:54.525Z,22.00
2022-09-05T19:58:24.384Z,21.90
2022-09-05T20:01:03.441Z,21.90
2022-09-05T20:03:39.123Z,21.90
2022-09-05T20:06:24.756Z,21.90
2022-09-05T20:09:10.644Z,21.80
2022-09-05T20:11:45.769Z,21.80
2022-09-05T20:14:24.232Z,21.80
2022-09-05T20:16:54.400Z,21.80
2022-09-05T20:19:35.966Z,21.70
2022-09-05T20:22:15.664Z,21.70
2022-09-05T20:24:56.148Z,21.70
2022-09-05T20:27:28.388Z,21.60
2022-09-05T20:30:01.039Z,21.50
2022-09-05T20:32:39.933Z,21.50
2022-09-05T20:40:16.629Z,21.50
2022-09-05T20:43:22.629Z,21.50
2022-09-05T20:43:27.335Z,21.50
2022-09-05T20:44:01.608Z,21.50
2022-09-05T20:50:44.293Z,21.60
2022-09-05T20:54:15.604Z,21.60
2022-09-05T20:54:27.506Z,21.50
2022-09-05T20:55:38.373Z,21.50
2022-09-05T20:58:11.715Z,21.40
2022-09-05T21:01:02.396Z,21.50
2022-09-05T21:03:38.004Z,21.40
2022-09-05T21:06:22.250Z,21.40
2022-09-05T21:08:53.055Z,21.40
2022-09-05T21:11:31.901Z,21.30
2022-09-05T21:14:03.577Z,21.40
2022-09-05T21:16:35.573Z,21.40
2022-09-05T21:19:04.155Z,21.40
2022-09-05T21:21:34.749Z,21.40
2022-09-05T21:24:17.516Z,21.30
2022-09-05T21:26:48.027Z,21.30
2022-09-05T21:29:18.106Z,21.30
2022-09-05T21:31:54.774Z,21.20
2022-09-05T21:34:28.064Z,21.20
2022-09-05T21:37:07.406Z,21.20
2022-09-05T21:39:58.759Z,21.20
2022-09-05T21:47:37.648Z,20.90
2022-09-05T21:47:40.489Z,20.80
2022-09-05T21:48:07.269Z,20.80
2022-09-05T21:50:39.864Z,20.80
2022-09-05T21:57:00.433Z,20.70
2022-09-05T21:59:24.052Z,20.70
2022-09-05T21:59:33.444Z,20.70
2022-09-05T22:01:57.495Z,20.70
2022-09-05T22:04:25.724Z,20.70
2022-09-05T22:06:56.227Z,20.60
2022-09-05T22:09:24.876Z,20.70
2022-09-05T22:11:54.460Z,20.60
2022-09-05T22:14:25.248Z,20.50
2022-09-05T22:16:57.348Z,20.60
2022-09-05T22:19:37.229Z,20.70
2022-09-05T22:22:16.298Z,20.70
2022-09-05T22:24:50.526Z,20.70
2022-09-05T22:27:22.287Z,20.70
2022-09-05T22:29:51.837Z,20.70
2022-09-05T22:32:34.401Z,20.70
2022-09-05T22:35:27.181Z,20.70
2022-09-05T22:38:00.430Z,20.70
2022-09-05T22:40:30.356Z,20.70
2022-09-05T22:43:01.619Z,20.70
2022-09-05T22:45:31.158Z,20.60
2022-09-05T22:47:59.555Z,20.60
2022-09-05T22:50:28.042Z,20.60
2022-09-05T22:52:56.195Z,20.60
2022-09-05T22:55:24.241Z,20.60
2022-09-05T22:57:52.440Z,20.60
2022-09-05T23:00:22.396Z,20.70
2022-09-05T23:02:52.807Z,20.60
2022-09-05T23:05:21.368Z,20.60
2022-09-05T23:07:49.585Z,20.50
2022-09-05T23:10:18.159Z,20.50
2022-09-05T23:12:46.283Z,20.50
2022-09-05T23:15:14.625Z,20.40
2022-09-05T23:17:44.129Z,20.40
2022-09-05T23:20:12.249Z,20.40
2022-09-05T23:22:40.412Z,20.40
2022-09-05T23:25:09.077Z,20.40
2022-09-05T23:27:37.838Z,20.40
2022-09-05T23:30:08.055Z,20.40
2022-09-05T23:32:36.157Z,20.40
2022-09-05T23:35:06.183Z,20.40
2022-09-05T23:37:34.326Z,20.30
2022-09-05T23:40:02.491Z,20.30
2022-09-05T23:42:30.636Z,20.30
2022-09-05T23:44:58.727Z,20.30
2022-09-05T23:47:28.976Z,20.30
2022-09-05T23:49:57.695Z,20.30
2022-09-05T23:52:27.166Z,20.20
2022-09-05T23:54:55.214Z,20.20
2022-09-05T23:57:23.941Z,20.20
2022-09-05T23:59:52.988Z,20.10
